WXForecasting.com
Aberdeen, SD - Weather Station Data
Daily Summary for August 11, 2017 Units:  English    Metric   Both
« Previous Day
Next Day »
Daily Weekly Monthly Yearly Custom
  High: Low: Average:
Temperature: 79.1 °F 56.1 °F 67.3 °F
Dew Point: 62.0 °F 51.0 °F 56.8 °F
Humidity: 86 % 47 % 71 %
Wind Speed: 6.0 mph 0.0 mph 0.8 mph
Wind Gust: 10.0 mph - -
Wind:- - ENE
Pressure: 30.15 in 30.05 in -
Precipitation: 0.00 in    
Historical Graphs
 
 
Tabular Data for August 11, 2017
Time Temperature Dew Point Pressure Wind Wind Speed Wind Gust Humidity Rainfall Rate (Hourly) solar Conditions
00:02 64.7 °F 58.0 °F 30.11 in Calm   1.0 mph 80 % 0.00 in 0 W/m2
00:17 64.8 °F 58.0 °F 30.11 in Calm   2.0 mph 79 % 0.00 in 0 W/m2
00:32 64.8 °F 58.0 °F 30.11 in Calm   1.0 mph 79 % 0.00 in 0 W/m2
00:47 64.6 °F 58.0 °F 30.11 in Calm   1.0 mph 79 % 0.00 in 0 W/m2
01:02 64.3 °F 58.0 °F 30.11 in Calm   1.0 mph 79 % 0.00 in 0 W/m2
01:17 63.9 °F 58.0 °F 30.12 in Calm   2.0 mph 80 % 0.00 in 0 W/m2
01:32 63.4 °F 57.0 °F 30.12 in NE 1.0 mph 3.0 mph 80 % 0.00 in 0 W/m2
01:47 63.0 °F 57.0 °F 30.11 in Calm   1.0 mph 81 % 0.00 in 0 W/m2
02:02 62.5 °F 57.0 °F 30.11 in Calm     81 % 0.00 in 0 W/m2
02:17 61.9 °F 56.0 °F 30.12 in Calm   2.0 mph 82 % 0.00 in 0 W/m2
02:32 61.6 °F 56.0 °F 30.12 in Calm   1.0 mph 83 % 0.00 in 0 W/m2
02:47 61.4 °F 56.0 °F 30.13 in Calm   1.0 mph 83 % 0.00 in 0 W/m2
03:02 61.1 °F 56.0 °F 30.13 in Calm     83 % 0.00 in 0 W/m2
03:17 60.6 °F 56.0 °F 30.13 in NE 1.0 mph 5.0 mph 84 % 0.00 in 0 W/m2
03:32 60.2 °F 55.0 °F 30.13 in Calm   1.0 mph 84 % 0.00 in 0 W/m2
03:48 59.6 °F 55.0 °F 30.13 in Calm   2.0 mph 84 % 0.00 in 0 W/m2
04:03 59.2 °F 54.0 °F 30.13 in Calm   1.0 mph 84 % 0.00 in 0 W/m2
04:18 58.7 °F 54.0 °F 30.13 in Calm     84 % 0.00 in 0 W/m2
04:33 58.5 °F 54.0 °F 30.13 in Calm   1.0 mph 85 % 0.00 in 0 W/m2
04:48 58.1 °F 54.0 °F 30.13 in Calm   2.0 mph 85 % 0.00 in 0 W/m2
05:03 57.7 °F 53.0 °F 30.13 in NE 1.0 mph 3.0 mph 85 % 0.00 in 0 W/m2
05:18 57.5 °F 53.0 °F 30.13 in Calm   1.0 mph 85 % 0.00 in 0 W/m2
05:33 57.2 °F 53.0 °F 30.14 in Calm   1.0 mph 86 % 0.00 in 0 W/m2
05:48 57.1 °F 53.0 °F 30.14 in NE 1.0 mph 3.0 mph 85 % 0.00 in 0 W/m2
06:03 56.9 °F 53.0 °F 30.14 in Calm   2.0 mph 85 % 0.00 in 0 W/m2
06:18 56.6 °F 52.0 °F 30.14 in NE 1.0 mph 2.0 mph 85 % 0.00 in 0 W/m2
06:33 56.4 °F 52.0 °F 30.15 in Calm   3.0 mph 84 % 0.00 in 7 W/m2
06:48 56.1 °F 51.0 °F 30.14 in NE 1.0 mph 3.0 mph 84 % 0.00 in 21 W/m2
07:03 56.1 °F 51.0 °F 30.15 in NE 1.0 mph 3.0 mph 84 % 0.00 in 37 W/m2
07:18 56.6 °F 52.0 °F 30.15 in NE 1.0 mph 4.0 mph 84 % 0.00 in 40 W/m2
07:33 57.3 °F 53.0 °F 30.15 in Calm   3.0 mph 84 % 0.00 in 67 W/m2
07:48 57.9 °F 53.0 °F 30.14 in Calm   5.0 mph 83 % 0.00 in 81 W/m2
08:03 58.4 °F 53.0 °F 30.14 in Calm   2.0 mph 83 % 0.00 in 91 W/m2
08:18 59.1 °F 54.0 °F 30.15 in NE 1.0 mph 3.0 mph 82 % 0.00 in 90 W/m2
08:33 60.0 °F 55.0 °F 30.15 in NE 1.0 mph 3.0 mph 82 % 0.00 in 258 W/m2
08:48 61.6 °F 55.0 °F 30.15 in NE 3.0 mph 5.0 mph 80 % 0.00 in 297 W/m2
09:03 63.4 °F 56.0 °F 30.15 in NE 1.0 mph 4.0 mph 78 % 0.00 in 341 W/m2
09:18 65.3 °F 57.0 °F 30.15 in Calm   3.0 mph 75 % 0.00 in 206 W/m2
09:33 67.6 °F 58.0 °F 30.15 in NE 1.0 mph 3.0 mph 72 % 0.00 in 485 W/m2
09:49 69.0 °F 59.0 °F 30.15 in Calm   3.0 mph 71 % 0.00 in 489 W/m2
10:04 70.7 °F 60.0 °F 30.15 in Calm   2.0 mph 68 % 0.00 in 573 W/m2
10:19 71.9 °F 60.0 °F 30.15 in Calm   3.0 mph 67 % 0.00 in 533 W/m2
10:34 72.4 °F 60.0 °F 30.15 in Calm   3.0 mph 66 % 0.00 in 357 W/m2
10:49 72.9 °F 60.0 °F 30.15 in Calm   3.0 mph 64 % 0.00 in 464 W/m2
11:04 73.9 °F 62.0 °F 30.15 in NE 1.0 mph 3.0 mph 67 % 0.00 in 673 W/m2
11:19 74.9 °F 61.0 °F 30.15 in NE 1.0 mph 4.0 mph 62 % 0.00 in 715 W/m2
11:34 75.7 °F 62.0 °F 30.15 in Calm   4.0 mph 63 % 0.00 in 715 W/m2
11:49 76.2 °F 60.0 °F 30.15 in Calm   4.0 mph 57 % 0.00 in 719 W/m2
12:04 76.0 °F 57.0 °F 30.14 in South 1.0 mph 7.0 mph 52 % 0.00 in 773 W/m2
12:19 77.2 °F 57.0 °F 30.13 in South 6.0 mph 6.0 mph 50 % 0.00 in 388 W/m2
12:34 77.5 °F 59.0 °F 30.13 in SSE 4.0 mph 5.0 mph 53 % 0.00 in 772 W/m2
12:49 76.4 °F 57.0 °F 30.12 in SSE 1.0 mph 5.0 mph 52 % 0.00 in 272 W/m2
13:04 76.8 °F 57.0 °F 30.12 in SE 3.0 mph 4.0 mph 50 % 0.00 in 766 W/m2
13:19 77.1 °F 58.0 °F 30.12 in NNE 4.0 mph 6.0 mph 51 % 0.00 in 392 W/m2
13:34 76.5 °F 57.0 °F 30.11 in NE 3.0 mph 10.0 mph 51 % 0.00 in 264 W/m2
13:49 76.0 °F 57.0 °F 30.11 in NE 3.0 mph 8.0 mph 52 % 0.00 in 206 W/m2
14:04 76.1 °F 58.0 °F 30.11 in ENE 2.0 mph 6.0 mph 54 % 0.00 in 253 W/m2
14:19 76.3 °F 56.0 °F 30.11 in East 2.0 mph 6.0 mph 50 % 0.00 in 216 W/m2
14:34 76.6 °F 57.0 °F 30.10 in NE 1.0 mph 9.0 mph 51 % 0.00 in 239 W/m2
14:49 79.1 °F 57.0 °F 30.10 in ENE 3.0 mph 9.0 mph 47 % 0.00 in 944 W/m2
15:04 77.9 °F 57.0 °F 30.10 in NE 3.0 mph 5.0 mph 49 % 0.00 in 381 W/m2
15:19 77.7 °F 60.0 °F 30.09 in ENE 1.0 mph 9.0 mph 55 % 0.00 in 408 W/m2
15:34 78.0 °F 57.0 °F 30.09 in NE 5.0 mph 7.0 mph 49 % 0.00 in 220 W/m2
18:21 77.9 °F 56.0 °F 30.05 in Calm   7.0 mph 47 % 0.00 in 241 W/m2
18:36 78.1 °F 57.0 °F 30.06 in ESE 2.0 mph 3.0 mph 48 % 0.00 in 113 W/m2
18:51 78.1 °F 56.0 °F 30.05 in ESE 1.0 mph 4.0 mph 47 % 0.00 in 160 W/m2
19:06 76.2 °F 60.0 °F 30.05 in South 1.0 mph 5.0 mph 57 % 0.00 in 58 W/m2
19:22 75.6 °F 59.0 °F 30.05 in South 1.0 mph 3.0 mph 56 % 0.00 in 51 W/m2
19:36 75.1 °F 59.0 °F 30.05 in South 1.0 mph 5.0 mph 57 % 0.00 in 42 W/m2
19:51 74.5 °F 59.0 °F 30.05 in Calm   1.0 mph 58 % 0.00 in 30 W/m2
20:06 73.9 °F 59.0 °F 30.05 in Calm   2.0 mph 59 % 0.00 in 21 W/m2
20:21 73.1 °F 59.0 °F 30.05 in Calm     61 % 0.00 in 11 W/m2
20:36 72.0 °F 59.0 °F 30.05 in Calm     64 % 0.00 in 7 W/m2
20:51 70.5 °F 59.0 °F 30.05 in Calm     66 % 0.00 in 0 W/m2
21:06 69.6 °F 59.0 °F 30.05 in Calm   1.0 mph 68 % 0.00 in 0 W/m2
21:21 68.9 °F 58.0 °F 30.05 in Calm     69 % 0.00 in 0 W/m2
21:36 68.1 °F 58.0 °F 30.06 in Calm     70 % 0.00 in 0 W/m2
21:51 67.2 °F 58.0 °F 30.06 in Calm     72 % 0.00 in 0 W/m2
22:06 66.6 °F 58.0 °F 30.06 in Calm     73 % 0.00 in 0 W/m2
22:21 66.1 °F 58.0 °F 30.05 in Calm     75 % 0.00 in 0 W/m2
22:36 65.9 °F 58.0 °F 30.05 in Calm     75 % 0.00 in 0 W/m2
22:51 65.3 °F 58.0 °F 30.06 in Calm     76 % 0.00 in 0 W/m2
23:06 64.9 °F 58.0 °F 30.05 in Calm     77 % 0.00 in 0 W/m2
23:21 64.5 °F 58.0 °F 30.05 in Calm   1.0 mph 78 % 0.00 in 0 W/m2
23:36 64.0 °F 57.0 °F 30.05 in Calm     78 % 0.00 in 0 W/m2
23:51 63.5 °F 57.0 °F 30.05 in Calm     78 % 0.00 in 0 W/m2
Compliments of Weather Underground - 1 mb